sensor_id;sensor_type;location;lat;lon;timestamp;temperature;humidity
16513;DHT22;8369;48.030;11.598;2024-03-02T00:00:20;5.80;99.90
16513;DHT22;8369;48.030;11.598;2024-03-02T00:02:48;5.80;99.90
16513;DHT22;8369;48.030;11.598;2024-03-02T00:05:18;5.80;99.90
16513;DHT22;8369;48.030;11.598;2024-03-02T00:07:55;5.80;99.90
16513;DHT22;8369;48.030;11.598;2024-03-02T00:10:31;5.80;99.90
16513;DHT22;8369;48.030;11.598;2024-03-02T00:13:01;5.80;99.90
16513;DHT22;8369;48.030;11.598;2024-03-02T00:18:01;5.70;99.90
16513;DHT22;8369;48.030;11.598;2024-03-02T00:20:27;5.70;99.90
16513;DHT22;8369;48.030;11.598;2024-03-02T00:23:06;5.70;99.90
16513;DHT22;8369;48.030;11.598;2024-03-02T00:25:40;5.70;99.90
16513;DHT22;8369;48.030;11.598;2024-03-02T00:28:32;5.70;99.90
16513;DHT22;8369;48.030;11.598;2024-03-02T00:31:11;5.70;99.90
16513;DHT22;8369;48.030;11.598;2024-03-02T00:33:44;5.70;99.90
16513;DHT22;8369;48.030;11.598;2024-03-02T00:36:11;5.70;99.90
16513;DHT22;8369;48.030;11.598;2024-03-02T00:38:47;5.60;99.90
16513;DHT22;8369;48.030;11.598;2024-03-02T00:41:32;5.60;99.90
16513;DHT22;8369;48.030;11.598;2024-03-02T00:44:03;5.60;99.90
16513;DHT22;8369;48.030;11.598;2024-03-02T00:46:37;5.60;99.90
16513;DHT22;8369;48.030;11.598;2024-03-02T00:49:21;5.60;99.90
16513;DHT22;8369;48.030;11.598;2024-03-02T00:51:49;5.60;99.90
16513;DHT22;8369;48.030;11.598;2024-03-02T00:54:15;5.60;99.90
16513;DHT22;8369;48.030;11.598;2024-03-02T00:56:42;5.60;99.90
16513;DHT22;8369;48.030;11.598;2024-03-02T00:59:09;5.60;99.90
16513;DHT22;8369;48.030;11.598;2024-03-02T01:01:35;5.60;99.90
16513;DHT22;8369;48.030;11.598;2024-03-02T01:04:01;5.60;99.90
16513;DHT22;8369;48.030;11.598;2024-03-02T01:06:27;5.60;99.90
16513;DHT22;8369;48.030;11.598;2024-03-02T01:08:53;5.60;99.90
16513;DHT22;8369;48.030;11.598;2024-03-02T01:11:19;5.60;99.90
16513;DHT22;8369;48.030;11.598;2024-03-02T01:13:47;5.60;99.90
16513;DHT22;8369;48.030;11.598;2024-03-02T01:16:14;5.60;99.90
16513;DHT22;8369;48.030;11.598;2024-03-02T01:18:41;5.60;99.90
16513;DHT22;8369;48.030;11.598;2024-03-02T01:21:07;5.60;99.90
16513;DHT22;8369;48.030;11.598;2024-03-02T01:23:33;5.60;99.90
16513;DHT22;8369;48.030;11.598;2024-03-02T01:25:59;5.60;99.90
16513;DHT22;8369;48.030;11.598;2024-03-02T01:28:25;5.60;99.90
16513;DHT22;8369;48.030;11.598;2024-03-02T01:30:50;5.60;99.90
16513;DHT22;8369;48.030;11.598;2024-03-02T01:33:17;5.60;99.90
16513;DHT22;8369;48.030;11.598;2024-03-02T01:35:43;5.60;99.90
16513;DHT22;8369;48.030;11.598;2024-03-02T01:38:09;5.60;99.90
16513;DHT22;8369;48.030;11.598;2024-03-02T01:40:36;5.60;99.90
16513;DHT22;8369;48.030;11.598;2024-03-02T01:43:06;5.60;99.90
16513;DHT22;8369;48.030;11.598;2024-03-02T01:45:33;5.60;99.90
16513;DHT22;8369;48.030;11.598;2024-03-02T01:47:59;5.60;99.90
16513;DHT22;8369;48.030;11.598;2024-03-02T01:50:29;5.60;99.90
16513;DHT22;8369;48.030;11.598;2024-03-02T01:52:56;5.60;99.90
16513;DHT22;8369;48.030;11.598;2024-03-02T01:55:22;5.60;99.90
16513;DHT22;8369;48.030;11.598;2024-03-02T01:57:49;5.60;99.90
16513;DHT22;8369;48.030;11.598;2024-03-02T02:00:16;5.60;99.90
16513;DHT22;8369;48.030;11.598;2024-03-02T02:02:43;5.60;99.90
16513;DHT22;8369;48.030;11.598;2024-03-02T02:05:09;5.50;99.90
16513;DHT22;8369;48.030;11.598;2024-03-02T02:07:35;5.50;99.90
16513;DHT22;8369;48.030;11.598;2024-03-02T02:10:01;5.50;99.90
16513;DHT22;8369;48.030;11.598;2024-03-02T02:12:27;5.50;99.90
16513;DHT22;8369;48.030;11.598;2024-03-02T02:14:53;5.50;99.90
16513;DHT22;8369;48.030;11.598;2024-03-02T02:17:19;5.50;99.90
16513;DHT22;8369;48.030;11.598;2024-03-02T02:19:45;5.50;99.90
16513;DHT22;8369;48.030;11.598;2024-03-02T02:22:11;5.50;99.90
16513;DHT22;8369;48.030;11.598;2024-03-02T02:24:41;5.50;99.90
16513;DHT22;8369;48.030;11.598;2024-03-02T02:27:08;5.50;99.90
16513;DHT22;8369;48.030;11.598;2024-03-02T02:29:34;5.50;99.90
16513;DHT22;8369;48.030;11.598;2024-03-02T02:31:59;5.50;99.90
16513;DHT22;8369;48.030;11.598;2024-03-02T02:34:25;5.50;99.90
16513;DHT22;8369;48.030;11.598;2024-03-02T02:36:51;5.50;99.90
16513;DHT22;8369;48.030;11.598;2024-03-02T02:39:19;5.50;99.90
16513;DHT22;8369;48.030;11.598;2024-03-02T02:41:46;5.50;99.90
16513;DHT22;8369;48.030;11.598;2024-03-02T02:44:12;5.50;99.90
16513;DHT22;8369;48.030;11.598;2024-03-02T02:46:39;5.50;99.90
16513;DHT22;8369;48.030;11.598;2024-03-02T02:49:05;5.50;99.90
16513;DHT22;8369;48.030;11.598;2024-03-02T02:51:30;5.50;99.90
16513;DHT22;8369;48.030;11.598;2024-03-02T02:53:56;5.50;99.90
16513;DHT22;8369;48.030;11.598;2024-03-02T02:56:22;5.50;99.90
16513;DHT22;8369;48.030;11.598;2024-03-02T02:58:48;5.50;99.90
16513;DHT22;8369;48.030;11.598;2024-03-02T03:01:16;5.50;99.90
16513;DHT22;8369;48.030;11.598;2024-03-02T03:03:44;5.50;99.90
16513;DHT22;8369;48.030;11.598;2024-03-02T03:06:10;5.50;99.90
16513;DHT22;8369;48.030;11.598;2024-03-02T03:08:36;5.50;99.90
16513;DHT22;8369;48.030;11.598;2024-03-02T03:11:02;5.50;99.90
16513;DHT22;8369;48.030;11.598;2024-03-02T03:13:28;5.50;99.90
16513;DHT22;8369;48.030;11.598;2024-03-02T03:15:53;5.50;99.90
16513;DHT22;8369;48.030;11.598;2024-03-02T03:18:19;5.50;99.90
16513;DHT22;8369;48.030;11.598;2024-03-02T03:20:45;5.50;99.90
16513;DHT22;8369;48.030;11.598;2024-03-02T03:23:11;5.50;99.90
16513;DHT22;8369;48.030;11.598;2024-03-02T03:25:44;5.60;99.90
16513;DHT22;8369;48.030;11.598;2024-03-02T03:28:10;5.50;99.90
16513;DHT22;8369;48.030;11.598;2024-03-02T03:30:37;5.60;99.90
16513;DHT22;8369;48.030;11.598;2024-03-02T03:33:03;5.60;99.90
16513;DHT22;8369;48.030;11.598;2024-03-02T03:35:31;5.60;99.90
16513;DHT22;8369;48.030;11.598;2024-03-02T03:37:57;5.50;99.90
16513;DHT22;8369;48.030;11.598;2024-03-02T03:40:23;5.50;99.90
16513;DHT22;8369;48.030;11.598;2024-03-02T03:42:48;5.60;99.90
16513;DHT22;8369;48.030;11.598;2024-03-02T03:45:16;5.60;99.90
16513;DHT22;8369;48.030;11.598;2024-03-02T03:47:41;5.60;99.90
16513;DHT22;8369;48.030;11.598;2024-03-02T03:50:07;5.60;99.90
16513;DHT22;8369;48.030;11.598;2024-03-02T03:52:33;5.60;99.90
16513;DHT22;8369;48.030;11.598;2024-03-02T03:54:59;5.60;99.90
16513;DHT22;8369;48.030;11.598;2024-03-02T03:57:26;5.60;99.90
16513;DHT22;8369;48.030;11.598;2024-03-02T03:59:52;5.60;99.90
16513;DHT22;8369;48.030;11.598;2024-03-02T04:02:18;5.60;99.90
16513;DHT22;8369;48.030;11.598;2024-03-02T04:04:44;5.60;99.90
16513;DHT22;8369;48.030;11.598;2024-03-02T04:07:10;5.60;99.90
16513;DHT22;8369;48.030;11.598;2024-03-02T04:09:36;5.60;99.90
16513;DHT22;8369;48.030;11.598;2024-03-02T04:12:02;5.60;99.90
16513;DHT22;8369;48.030;11.598;2024-03-02T04:14:27;5.60;99.90
16513;DHT22;8369;48.030;11.598;2024-03-02T04:16:53;5.60;99.90
16513;DHT22;8369;48.030;11.598;2024-03-02T04:19:19;5.60;99.90
16513;DHT22;8369;48.030;11.598;2024-03-02T04:21:44;5.60;99.90
16513;DHT22;8369;48.030;11.598;2024-03-02T04:24:10;5.60;99.90
16513;DHT22;8369;48.030;11.598;2024-03-02T04:26:36;5.60;99.90
16513;DHT22;8369;48.030;11.598;2024-03-02T04:29:02;5.60;99.90
16513;DHT22;8369;48.030;11.598;2024-03-02T04:31:27;5.50;99.90
16513;DHT22;8369;48.030;11.598;2024-03-02T04:33:53;5.50;99.90
16513;DHT22;8369;48.030;11.598;2024-03-02T04:36:19;5.60;99.90
16513;DHT22;8369;48.030;11.598;2024-03-02T04:38:46;5.60;99.90
16513;DHT22;8369;48.030;11.598;2024-03-02T04:41:12;5.60;99.90
16513;DHT22;8369;48.030;11.598;2024-03-02T04:43:38;5.60;99.90
16513;DHT22;8369;48.030;11.598;2024-03-02T04:46:05;5.60;99.90
16513;DHT22;8369;48.030;11.598;2024-03-02T04:48:32;5.60;99.90
16513;DHT22;8369;48.030;11.598;2024-03-02T04:50:58;5.60;99.90
16513;DHT22;8369;48.030;11.598;2024-03-02T04:53:24;5.60;99.90
16513;DHT22;8369;48.030;11.598;2024-03-02T04:55:50;5.60;99.90
16513;DHT22;8369;48.030;11.598;2024-03-02T04:58:22;5.60;99.90
16513;DHT22;8369;48.030;11.598;2024-03-02T05:00:48;5.60;99.90
16513;DHT22;8369;48.030;11.598;2024-03-02T05:03:14;5.60;99.90
16513;DHT22;8369;48.030;11.598;2024-03-02T05:05:40;5.60;99.90
16513;DHT22;8369;48.030;11.598;2024-03-02T05:08:06;5.60;99.90
16513;DHT22;8369;48.030;11.598;2024-03-02T05:10:32;5.60;99.90
16513;DHT22;8369;48.030;11.598;2024-03-02T05:12:58;5.60;99.90
16513;DHT22;8369;48.030;11.598;2024-03-02T05:15:24;5.60;99.90
16513;DHT22;8369;48.030;11.598;2024-03-02T05:17:50;5.60;99.90
16513;DHT22;8369;48.030;11.598;2024-03-02T05:20:17;5.60;99.90
16513;DHT22;8369;48.030;11.598;2024-03-02T05:22:45;5.60;99.90
16513;DHT22;8369;48.030;11.598;2024-03-02T05:25:12;5.60;99.90
16513;DHT22;8369;48.030;11.598;2024-03-02T05:27:38;5.60;99.90
16513;DHT22;8369;48.030;11.598;2024-03-02T05:30:04;5.60;99.90
16513;DHT22;8369;48.030;11.598;2024-03-02T05:32:32;5.60;99.90
16513;DHT22;8369;48.030;11.598;2024-03-02T05:34:58;5.60;99.90
16513;DHT22;8369;48.030;11.598;2024-03-02T05:37:23;5.60;99.90
16513;DHT22;8369;48.030;11.598;2024-03-02T05:39:49;5.60;99.90
16513;DHT22;8369;48.030;11.598;2024-03-02T05:42:15;5.60;99.90
16513;DHT22;8369;48.030;11.598;2024-03-02T05:44:42;5.60;99.90
16513;DHT22;8369;48.030;11.598;2024-03-02T05:47:08;5.60;99.90
16513;DHT22;8369;48.030;11.598;2024-03-02T05:49:34;5.60;99.90
16513;DHT22;8369;48.030;11.598;2024-03-02T05:52:03;5.60;99.90
16513;DHT22;8369;48.030;11.598;2024-03-02T05:54:29;5.60;99.90
16513;DHT22;8369;48.030;11.598;2024-03-02T05:56:55;5.60;99.90
16513;DHT22;8369;48.030;11.598;2024-03-02T05:59:21;5.60;99.90
16513;DHT22;8369;48.030;11.598;2024-03-02T06:01:47;5.60;99.90
16513;DHT22;8369;48.030;11.598;2024-03-02T06:04:14;5.60;99.90
16513;DHT22;8369;48.030;11.598;2024-03-02T06:06:42;5.50;99.90
16513;DHT22;8369;48.030;11.598;2024-03-02T06:09:09;5.60;99.90
16513;DHT22;8369;48.030;11.598;2024-03-02T06:11:38;5.50;99.90
16513;DHT22;8369;48.030;11.598;2024-03-02T06:14:08;5.60;99.90
16513;DHT22;8369;48.030;11.598;2024-03-02T06:16:34;5.60;99.90
16513;DHT22;8369;48.030;11.598;2024-03-02T06:19:00;5.60;99.90
16513;DHT22;8369;48.030;11.598;2024-03-02T06:21:29;5.60;99.90
16513;DHT22;8369;48.030;11.598;2024-03-02T06:23:55;5.60;99.90
16513;DHT22;8369;48.030;11.598;2024-03-02T06:26:25;5.60;99.90
16513;DHT22;8369;48.030;11.598;2024-03-02T06:28:53;5.60;99.90
16513;DHT22;8369;48.030;11.598;2024-03-02T06:31:19;5.60;99.90
16513;DHT22;8369;48.030;11.598;2024-03-02T06:33:45;5.60;99.90
16513;DHT22;8369;48.030;11.598;2024-03-02T06:36:11;5.60;99.90
16513;DHT22;8369;48.030;11.598;2024-03-02T06:38:37;5.60;99.90
16513;DHT22;8369;48.030;11.598;2024-03-02T06:41:05;5.60;99.90
16513;DHT22;8369;48.030;11.598;2024-03-02T06:43:30;5.60;99.90
16513;DHT22;8369;48.030;11.598;2024-03-02T06:45:59;5.60;99.90
16513;DHT22;8369;48.030;11.598;2024-03-02T06:48:24;5.60;99.90
16513;DHT22;8369;48.030;11.598;2024-03-02T06:50:50;5.60;99.90
16513;DHT22;8369;48.030;11.598;2024-03-02T06:53:18;5.60;99.90
16513;DHT22;8369;48.030;11.598;2024-03-02T06:55:45;5.60;99.90
16513;DHT22;8369;48.030;11.598;2024-03-02T06:58:15;5.60;99.90
16513;DHT22;8369;48.030;11.598;2024-03-02T07:00:42;5.60;99.90
16513;DHT22;8369;48.030;11.598;2024-03-02T07:03:07;5.60;99.90
16513;DHT22;8369;48.030;11.598;2024-03-02T07:05:33;5.60;99.90
16513;DHT22;8369;48.030;11.598;2024-03-02T07:07:59;5.60;99.90
16513;DHT22;8369;48.030;11.598;2024-03-02T07:10:27;5.60;99.90
16513;DHT22;8369;48.030;11.598;2024-03-02T07:12:52;5.60;99.90
16513;DHT22;8369;48.030;11.598;2024-03-02T07:15:19;5.60;99.90
16513;DHT22;8369;48.030;11.598;2024-03-02T07:18:03;5.70;99.90
16513;DHT22;8369;48.030;11.598;2024-03-02T07:20:29;5.70;99.90
16513;DHT22;8369;48.030;11.598;2024-03-02T07:22:55;5.70;99.90
16513;DHT22;8369;48.030;11.598;2024-03-02T07:25:24;5.70;99.90
16513;DHT22;8369;48.030;11.598;2024-03-02T07:27:50;5.70;99.90
16513;DHT22;8369;48.030;11.598;2024-03-02T07:30:16;5.80;99.90
16513;DHT22;8369;48.030;11.598;2024-03-02T07:32:42;5.80;99.90
16513;DHT22;8369;48.030;11.598;2024-03-02T07:35:14;5.80;99.90
16513;DHT22;8369;48.030;11.598;2024-03-02T07:37:41;5.80;99.90
16513;DHT22;8369;48.030;11.598;2024-03-02T07:40:08;5.80;99.90
16513;DHT22;8369;48.030;11.598;2024-03-02T07:42:42;5.90;99.90
16513;DHT22;8369;48.030;11.598;2024-03-02T07:45:11;5.90;99.90
16513;DHT22;8369;48.030;11.598;2024-03-02T07:47:37;5.90;99.90
16513;DHT22;8369;48.030;11.598;2024-03-02T07:50:03;6.00;99.90
16513;DHT22;8369;48.030;11.598;2024-03-02T07:52:32;6.00;99.90
16513;DHT22;8369;48.030;11.598;2024-03-02T07:54:57;6.00;99.90
16513;DHT22;8369;48.030;11.598;2024-03-02T07:57:23;6.10;99.90
16513;DHT22;8369;48.030;11.598;2024-03-02T07:59:49;6.10;99.90
16513;DHT22;8369;48.030;11.598;2024-03-02T08:02:15;6.20;99.90
16513;DHT22;8369;48.030;11.598;2024-03-02T08:04:41;6.20;99.90
16513;DHT22;8369;48.030;11.598;2024-03-02T08:07:07;6.20;99.90
16513;DHT22;8369;48.030;11.598;2024-03-02T08:09:34;6.20;99.90
16513;DHT22;8369;48.030;11.598;2024-03-02T08:12:00;6.20;99.90
16513;DHT22;8369;48.030;11.598;2024-03-02T08:14:26;6.30;99.90
16513;DHT22;8369;48.030;11.598;2024-03-02T08:16:52;6.30;99.90
16513;DHT22;8369;48.030;11.598;2024-03-02T08:19:18;6.30;99.90
16513;DHT22;8369;48.030;11.598;2024-03-02T08:21:44;6.30;99.90
16513;DHT22;8369;48.030;11.598;2024-03-02T08:24:10;6.30;99.90
16513;DHT22;8369;48.030;11.598;2024-03-02T08:26:36;6.30;99.90
16513;DHT22;8369;48.030;11.598;2024-03-02T08:29:02;6.40;99.90
16513;DHT22;8369;48.030;11.598;2024-03-02T08:31:29;6.40;99.90
16513;DHT22;8369;48.030;11.598;2024-03-02T08:33:55;6.40;99.90
16513;DHT22;8369;48.030;11.598;2024-03-02T08:36:22;6.40;99.90
16513;DHT22;8369;48.030;11.598;2024-03-02T08:38:49;6.40;99.90
16513;DHT22;8369;48.030;11.598;2024-03-02T08:41:15;6.50;99.90
16513;DHT22;8369;48.030;11.598;2024-03-02T08:43:44;6.50;99.90
16513;DHT22;8369;48.030;11.598;2024-03-02T08:46:10;6.60;99.90
16513;DHT22;8369;48.030;11.598;2024-03-02T08:48:35;6.60;99.90
16513;DHT22;8369;48.030;11.598;2024-03-02T08:51:04;6.70;99.90
16513;DHT22;8369;48.030;11.598;2024-03-02T08:53:33;6.80;99.90
16513;DHT22;8369;48.030;11.598;2024-03-02T08:55:59;6.80;99.90
16513;DHT22;8369;48.030;11.598;2024-03-02T08:58:25;6.90;99.90
16513;DHT22;8369;48.030;11.598;2024-03-02T09:00:50;6.90;99.90
16513;DHT22;8369;48.030;11.598;2024-03-02T09:03:19;7.00;99.90
16513;DHT22;8369;48.030;11.598;2024-03-02T09:05:44;7.20;99.90
16513;DHT22;8369;48.030;11.598;2024-03-02T09:08:10;7.30;99.90
16513;DHT22;8369;48.030;11.598;2024-03-02T09:10:36;7.40;99.90
16513;DHT22;8369;48.030;11.598;2024-03-02T09:13:04;7.60;99.90
16513;DHT22;8369;48.030;11.598;2024-03-02T09:15:29;7.70;99.90
16513;DHT22;8369;48.030;11.598;2024-03-02T09:17:58;7.80;99.90
16513;DHT22;8369;48.030;11.598;2024-03-02T09:20:24;7.90;99.90
16513;DHT22;8369;48.030;11.598;2024-03-02T09:22:49;8.10;99.90
16513;DHT22;8369;48.030;11.598;2024-03-02T09:25:15;8.20;99.90
16513;DHT22;8369;48.030;11.598;2024-03-02T09:27:41;8.30;99.90
16513;DHT22;8369;48.030;11.598;2024-03-02T09:30:10;8.40;99.90
16513;DHT22;8369;48.030;11.598;2024-03-02T09:32:37;8.50;99.90
16513;DHT22;8369;48.030;11.598;2024-03-02T09:35:03;8.60;99.90
16513;DHT22;8369;48.030;11.598;2024-03-02T09:37:31;8.70;99.90
16513;DHT22;8369;48.030;11.598;2024-03-02T09:39:57;8.80;99.90
16513;DHT22;8369;48.030;11.598;2024-03-02T09:42:23;8.90;99.90
16513;DHT22;8369;48.030;11.598;2024-03-02T09:44:49;8.90;99.90
16513;DHT22;8369;48.030;11.598;2024-03-02T09:47:15;8.90;99.90
16513;DHT22;8369;48.030;11.598;2024-03-02T09:49:41;9.00;99.90
16513;DHT22;8369;48.030;11.598;2024-03-02T09:52:07;9.00;99.90
16513;DHT22;8369;48.030;11.598;2024-03-02T09:54:33;9.10;99.90
16513;DHT22;8369;48.030;11.598;2024-03-02T09:56:58;9.10;99.90
16513;DHT22;8369;48.030;11.598;2024-03-02T09:59:24;9.20;99.90
16513;DHT22;8369;48.030;11.598;2024-03-02T10:02:02;9.20;99.90
16513;DHT22;8369;48.030;11.598;2024-03-02T10:04:29;9.40;99.90
16513;DHT22;8369;48.030;11.598;2024-03-02T10:07:16;9.50;99.90
16513;DHT22;8369;48.030;11.598;2024-03-02T10:09:44;9.60;99.90
16513;DHT22;8369;48.030;11.598;2024-03-02T10:12:11;9.70;99.90
16513;DHT22;8369;48.030;11.598;2024-03-02T10:14:38;9.70;99.90
16513;DHT22;8369;48.030;11.598;2024-03-02T10:17:13;9.80;99.90
16513;DHT22;8369;48.030;11.598;2024-03-02T10:19:39;9.90;99.90
16513;DHT22;8369;48.030;11.598;2024-03-02T10:22:07;10.00;99.90
16513;DHT22;8369;48.030;11.598;2024-03-02T10:24:41;10.00;99.90
16513;DHT22;8369;48.030;11.598;2024-03-02T10:27:17;10.10;99.90
16513;DHT22;8369;48.030;11.598;2024-03-02T10:29:46;10.20;99.90
16513;DHT22;8369;48.030;11.598;2024-03-02T10:32:12;10.30;99.90
16513;DHT22;8369;48.030;11.598;2024-03-02T10:34:42;10.40;99.90
16513;DHT22;8369;48.030;11.598;2024-03-02T10:37:08;10.50;99.90
16513;DHT22;8369;48.030;11.598;2024-03-02T10:39:37;10.60;99.90
16513;DHT22;8369;48.030;11.598;2024-03-02T10:42:07;10.70;99.90
16513;DHT22;8369;48.030;11.598;2024-03-02T10:44:33;10.70;99.90
16513;DHT22;8369;48.030;11.598;2024-03-02T10:47:04;10.80;99.90
16513;DHT22;8369;48.030;11.598;2024-03-02T10:49:31;10.90;99.90
16513;DHT22;8369;48.030;11.598;2024-03-02T10:52:00;10.90;99.90
16513;DHT22;8369;48.030;11.598;2024-03-02T10:54:29;11.00;99.90
16513;DHT22;8369;48.030;11.598;2024-03-02T10:57:01;11.00;99.90
16513;DHT22;8369;48.030;11.598;2024-03-02T10:59:33;11.10;99.90
16513;DHT22;8369;48.030;11.598;2024-03-02T11:02:00;11.10;99.90
16513;DHT22;8369;48.030;11.598;2024-03-02T11:04:28;11.20;99.90
16513;DHT22;8369;48.030;11.598;2024-03-02T11:07:07;11.30;99.90
16513;DHT22;8369;48.030;11.598;2024-03-02T11:09:41;11.40;99.90
16513;DHT22;8369;48.030;11.598;2024-03-02T11:12:19;11.40;99.90
16513;DHT22;8369;48.030;11.598;2024-03-02T11:14:51;11.40;99.90
16513;DHT22;8369;48.030;11.598;2024-03-02T11:17:19;11.50;99.90
16513;DHT22;8369;48.030;11.598;2024-03-02T11:19:46;11.50;99.90
16513;DHT22;8369;48.030;11.598;2024-03-02T11:22:13;11.50;99.90
16513;DHT22;8369;48.030;11.598;2024-03-02T11:24:38;11.60;99.90
16513;DHT22;8369;48.030;11.598;2024-03-02T11:27:06;11.60;99.90
16513;DHT22;8369;48.030;11.598;2024-03-02T11:32:05;11.60;99.90
16513;DHT22;8369;48.030;11.598;2024-03-02T11:34:35;11.60;99.90
16513;DHT22;8369;48.030;11.598;2024-03-02T11:37:02;11.70;99.90
16513;DHT22;8369;48.030;11.598;2024-03-02T11:39:28;11.80;99.90
16513;DHT22;8369;48.030;11.598;2024-03-02T11:41:55;11.80;99.90
16513;DHT22;8369;48.030;11.598;2024-03-02T11:44:21;11.90;99.90
16513;DHT22;8369;48.030;11.598;2024-03-02T11:47:00;12.00;99.90
16513;DHT22;8369;48.030;11.598;2024-03-02T11:49:52;12.10;99.90
16513;DHT22;8369;48.030;11.598;2024-03-02T11:52:18;12.20;99.90
16513;DHT22;8369;48.030;11.598;2024-03-02T11:54:45;12.20;99.90
16513;DHT22;8369;48.030;11.598;2024-03-02T11:57:18;12.30;99.90
16513;DHT22;8369;48.030;11.598;2024-03-02T11:59:45;12.40;99.90
16513;DHT22;8369;48.030;11.598;2024-03-02T12:02:20;12.40;99.90
16513;DHT22;8369;48.030;11.598;2024-03-02T12:04:48;12.40;99.90
16513;DHT22;8369;48.030;11.598;2024-03-02T12:07:23;12.50;99.90
16513;DHT22;8369;48.030;11.598;2024-03-02T12:10:10;12.50;99.90
16513;DHT22;8369;48.030;11.598;2024-03-02T12:12:35;12.50;99.90
16513;DHT22;8369;48.030;11.598;2024-03-02T12:15:01;12.60;99.90
16513;DHT22;8369;48.030;11.598;2024-03-02T12:17:29;12.60;99.90
16513;DHT22;8369;48.030;11.598;2024-03-02T12:19:55;12.60;99.90
16513;DHT22;8369;48.030;11.598;2024-03-02T12:22:21;12.60;99.90
16513;DHT22;8369;48.030;11.598;2024-03-02T12:24:47;12.70;99.90
16513;DHT22;8369;48.030;11.598;2024-03-02T12:27:15;12.70;99.90
16513;DHT22;8369;48.030;11.598;2024-03-02T12:29:42;12.80;99.90
16513;DHT22;8369;48.030;11.598;2024-03-02T12:32:08;12.80;99.90
16513;DHT22;8369;48.030;11.598;2024-03-02T12:34:38;12.80;99.90
16513;DHT22;8369;48.030;11.598;2024-03-02T12:37:04;12.80;99.90
16513;DHT22;8369;48.030;11.598;2024-03-02T12:39:30;12.90;99.90
16513;DHT22;8369;48.030;11.598;2024-03-02T12:41:58;12.90;99.90
16513;DHT22;8369;48.030;11.598;2024-03-02T12:44:24;12.90;99.90
16513;DHT22;8369;48.030;11.598;2024-03-02T12:46:49;13.00;99.90
16513;DHT22;8369;48.030;11.598;2024-03-02T12:49:15;13.00;99.90
16513;DHT22;8369;48.030;11.598;2024-03-02T12:51:46;13.00;99.90
16513;DHT22;8369;48.030;11.598;2024-03-02T12:54:17;13.00;99.90
16513;DHT22;8369;48.030;11.598;2024-03-02T12:56:52;13.00;99.90
16513;DHT22;8369;48.030;11.598;2024-03-02T12:59:23;13.00;99.90
16513;DHT22;8369;48.030;11.598;2024-03-02T13:01:55;13.00;99.90
16513;DHT22;8369;48.030;11.598;2024-03-02T13:04:27;13.00;99.90
16513;DHT22;8369;48.030;11.598;2024-03-02T13:06:55;13.00;99.90
16513;DHT22;8369;48.030;11.598;2024-03-02T13:09:23;13.00;99.90
16513;DHT22;8369;48.030;11.598;2024-03-02T13:11:49;13.00;99.90
16513;DHT22;8369;48.030;11.598;2024-03-02T13:14:15;13.00;99.90
16513;DHT22;8369;48.030;11.598;2024-03-02T13:16:41;13.00;99.90
16513;DHT22;8369;48.030;11.598;2024-03-02T13:19:11;13.00;99.90
16513;DHT22;8369;48.030;11.598;2024-03-02T13:21:37;12.90;99.90
16513;DHT22;8369;48.030;11.598;2024-03-02T13:24:04;13.00;99.90
16513;DHT22;8369;48.030;11.598;2024-03-02T13:26:30;12.90;99.90
16513;DHT22;8369;48.030;11.598;2024-03-02T13:28:56;12.90;99.90
16513;DHT22;8369;48.030;11.598;2024-03-02T13:31:22;12.90;99.90
16513;DHT22;8369;48.030;11.598;2024-03-02T13:33:48;12.90;99.90
16513;DHT22;8369;48.030;11.598;2024-03-02T13:36:16;12.90;99.90
16513;DHT22;8369;48.030;11.598;2024-03-02T13:38:42;12.90;99.90
16513;DHT22;8369;48.030;11.598;2024-03-02T13:41:08;12.90;99.90
16513;DHT22;8369;48.030;11.598;2024-03-02T13:43:37;12.90;99.90
16513;DHT22;8369;48.030;11.598;2024-03-02T13:46:04;12.80;99.90
16513;DHT22;8369;48.030;11.598;2024-03-02T13:48:30;12.80;99.90
16513;DHT22;8369;48.030;11.598;2024-03-02T13:50:56;12.90;99.90
16513;DHT22;8369;48.030;11.598;2024-03-02T13:53:22;12.80;99.90
16513;DHT22;8369;48.030;11.598;2024-03-02T13:55:51;12.70;99.90
16513;DHT22;8369;48.030;11.598;2024-03-02T13:58:20;12.70;99.90
16513;DHT22;8369;48.030;11.598;2024-03-02T14:00:46;12.70;99.90
16513;DHT22;8369;48.030;11.598;2024-03-02T14:03:12;12.70;99.90
16513;DHT22;8369;48.030;11.598;2024-03-02T14:05:38;12.60;99.90
16513;DHT22;8369;48.030;11.598;2024-03-02T14:08:04;12.50;99.90
16513;DHT22;8369;48.030;11.598;2024-03-02T14:10:30;12.50;99.90
16513;DHT22;8369;48.030;11.598;2024-03-02T14:12:55;12.50;99.90
16513;DHT22;8369;48.030;11.598;2024-03-02T14:15:22;12.50;99.90
16513;DHT22;8369;48.030;11.598;2024-03-02T14:17:49;12.40;99.90
16513;DHT22;8369;48.030;11.598;2024-03-02T14:20:15;12.40;99.90
16513;DHT22;8369;48.030;11.598;2024-03-02T14:22:48;12.40;99.90
16513;DHT22;8369;48.030;11.598;2024-03-02T14:28:50;12.30;99.90
16513;DHT22;8369;48.030;11.598;2024-03-02T14:31:16;12.30;99.90
16513;DHT22;8369;48.030;11.598;2024-03-02T14:33:42;12.30;99.90
16513;DHT22;8369;48.030;11.598;2024-03-02T14:36:08;12.20;99.90
16513;DHT22;8369;48.030;11.598;2024-03-02T14:38:35;12.30;99.90
16513;DHT22;8369;48.030;11.598;2024-03-02T14:41:00;12.20;99.90
16513;DHT22;8369;48.030;11.598;2024-03-02T14:43:26;12.20;99.90
16513;DHT22;8369;48.030;11.598;2024-03-02T14:45:52;12.20;99.90
16513;DHT22;8369;48.030;11.598;2024-03-02T14:48:18;12.20;99.90
16513;DHT22;8369;48.030;11.598;2024-03-02T14:50:43;12.20;99.90
16513;DHT22;8369;48.030;11.598;2024-03-02T14:53:12;12.10;99.90
16513;DHT22;8369;48.030;11.598;2024-03-02T14:55:38;12.10;99.90
16513;DHT22;8369;48.030;11.598;2024-03-02T14:58:04;12.10;99.90
16513;DHT22;8369;48.030;11.598;2024-03-02T15:00:31;12.10;99.90
16513;DHT22;8369;48.030;11.598;2024-03-02T15:02:56;12.10;99.90
16513;DHT22;8369;48.030;11.598;2024-03-02T15:05:22;12.00;99.90
16513;DHT22;8369;48.030;11.598;2024-03-02T15:07:51;12.00;99.90
16513;DHT22;8369;48.030;11.598;2024-03-02T15:10:17;12.00;99.90
16513;DHT22;8369;48.030;11.598;2024-03-02T15:12:43;12.00;99.90
16513;DHT22;8369;48.030;11.598;2024-03-02T15:15:09;11.90;99.90
16513;DHT22;8369;48.030;11.598;2024-03-02T15:17:36;11.90;99.90
16513;DHT22;8369;48.030;11.598;2024-03-02T15:20:02;11.90;99.90
16513;DHT22;8369;48.030;11.598;2024-03-02T15:22:30;11.90;99.90
16513;DHT22;8369;48.030;11.598;2024-03-02T15:24:56;11.80;99.90
16513;DHT22;8369;48.030;11.598;2024-03-02T15:27:24;11.80;99.90
16513;DHT22;8369;48.030;11.598;2024-03-02T15:29:55;11.80;99.90
16513;DHT22;8369;48.030;11.598;2024-03-02T15:32:23;11.80;99.90
16513;DHT22;8369;48.030;11.598;2024-03-02T15:34:49;11.80;99.90
16513;DHT22;8369;48.030;11.598;2024-03-02T15:37:15;11.80;99.90
16513;DHT22;8369;48.030;11.598;2024-03-02T15:39:44;11.80;99.90
16513;DHT22;8369;48.030;11.598;2024-03-02T15:42:10;11.70;99.90
16513;DHT22;8369;48.030;11.598;2024-03-02T15:44:38;11.70;99.90
16513;DHT22;8369;48.030;11.598;2024-03-02T15:47:07;11.70;99.90
16513;DHT22;8369;48.030;11.598;2024-03-02T15:49:33;11.60;99.90